Time;durP1;ratioP1;P1;durP2;ratioP2;P2;SDS_P1;SDS_P2;PMS_P1;PMS_P2;Temp;Humidity;BMP_temperature;BMP_pressure;BME280_temperature;BME280_humidity;BME280_pressure;Samples;Min_cycle;Max_cycle;Signal;HPM_P1;HPM_P2
2023/02/16 00:01:35;;;;;;;49.40;19.10;;;5.70;99.90;;;;;;5032698;28;20021;-77
2023/02/16 00:04:07;;;;;;;47.97;21.33;;;5.80;99.90;;;;;;5033885;28;20029;-77
2023/02/16 00:06:33;;;;;;;47.45;19.05;;;5.80;99.90;;;;;;5032232;28;20049;-77
2023/02/16 00:08:58;;;;;;;46.47;20.30;;;5.70;99.90;;;;;;5033944;28;20053;-76
2023/02/16 00:14:14;;;;;;;48.70;20.42;;;5.80;99.90;;;;;;5034992;28;20032;-77
2023/02/16 00:16:40;;;;;;;54.13;21.15;;;5.70;99.90;;;;;;5038050;28;20412;-77
2023/02/16 00:19:17;;;;;;;47.08;21.33;;;5.70;99.90;;;;;;5036563;28;20072;-77
2023/02/16 00:21:43;;;;;;;48.92;19.52;;;5.60;99.90;;;;;;5037887;28;20036;-77
2023/02/16 00:24:08;;;;;;;48.20;21.30;;;5.60;99.90;;;;;;5036411;28;20116;-77
2023/02/16 00:26:34;;;;;;;47.75;18.40;;;5.60;99.90;;;;;;5036470;28;20457;-77
2023/02/16 00:29:00;;;;;;;53.95;22.00;;;5.70;99.90;;;;;;5036547;28;20037;-77
2023/02/16 00:31:30;;;;;;;46.15;20.48;;;5.70;99.90;;;;;;5036692;28;20459;-77
2023/02/16 00:33:57;;;;;;;47.08;21.05;;;5.60;99.90;;;;;;5036268;28;20056;-77
2023/02/16 00:36:22;;;;;;;48.70;21.23;;;5.60;99.90;;;;;;5037557;28;20037;-77
2023/02/16 00:38:48;;;;;;;46.55;21.48;;;5.60;99.90;;;;;;5037327;28;20025;-77
2023/02/16 00:44:18;;;;;;;46.15;20.73;;;5.60;99.90;;;;;;5037784;28;20045;-77
2023/02/16 00:46:45;;;;;;;51.97;20.92;;;5.50;99.90;;;;;;5036037;28;20021;-77
2023/02/16 00:49:15;;;;;;;50.95;21.33;;;5.50;99.90;;;;;;5035976;28;20160;-77
2023/02/16 00:51:41;;;;;;;49.40;20.70;;;5.50;99.90;;;;;;5035968;28;20029;-77
2023/02/16 00:54:07;;;;;;;52.42;21.60;;;5.60;99.90;;;;;;5035319;28;20033;-77
2023/02/16 00:56:33;;;;;;;48.65;21.75;;;5.50;99.90;;;;;;5037730;28;20025;-76
2023/02/16 00:58:59;;;;;;;49.03;21.58;;;5.50;99.90;;;;;;5037056;28;20495;-76
2023/02/16 01:01:29;;;;;;;52.55;22.10;;;5.50;99.90;;;;;;5035578;28;20064;-76
2023/02/16 01:03:56;;;;;;;53.83;21.95;;;5.50;99.90;;;;;;5035689;28;20025;-76
2023/02/16 01:12:01;;;;;;;57.10;22.17;;;5.50;99.90;;;;;;5037065;28;20036;-76
2023/02/16 01:14:28;;;;;;;56.83;23.20;;;5.50;99.90;;;;;;5036750;28;20025;-76
2023/02/16 01:16:53;;;;;;;49.70;21.48;;;5.50;99.90;;;;;;5035462;28;20021;-76
2023/02/16 01:19:19;;;;;;;60.38;23.65;;;5.50;99.90;;;;;;5035592;28;20481;-76
2023/02/16 01:21:45;;;;;;;50.33;21.33;;;5.50;99.90;;;;;;5036799;28;20104;-76
2023/02/16 01:24:10;;;;;;;50.90;22.20;;;5.50;99.90;;;;;;5035319;28;20029;-76
2023/02/16 01:26:39;;;;;;;49.03;21.70;;;5.50;99.90;;;;;;5036052;28;20029;-76
2023/02/16 01:29:05;;;;;;;46.83;21.60;;;5.50;99.90;;;;;;5035871;28;20025;-76
2023/02/16 01:31:31;;;;;;;54.60;21.75;;;5.50;99.90;;;;;;5035831;28;20512;-76
2023/02/16 01:33:56;;;;;;;54.53;22.35;;;5.50;99.90;;;;;;5035759;28;20025;-76
2023/02/16 01:36:28;;;;;;;52.55;21.67;;;5.50;99.90;;;;;;5035775;28;20488;-76
2023/02/16 01:38:54;;;;;;;61.72;22.85;;;5.60;99.90;;;;;;5034538;28;20021;-76
2023/02/16 01:41:53;;;;;;;51.00;20.77;;;5.60;99.90;;;;;;5035735;28;20022;-76
2023/02/16 01:44:23;;;;;;;52.40;20.83;;;5.60;99.90;;;;;;5035623;28;20032;-76
2023/02/16 01:47:11;;;;;;;51.15;21.98;;;5.70;99.90;;;;;;5035552;28;20022;-76
2023/02/16 01:49:37;;;;;;;47.60;20.15;;;5.70;99.90;;;;;;5035566;28;20041;-76
2023/02/16 01:52:11;;;;;;;53.60;22.38;;;5.70;99.90;;;;;;5035370;28;20018;-76
2023/02/16 01:54:46;;;;;;;50.88;21.67;;;5.80;99.90;;;;;;5035561;28;20022;-76
2023/02/16 01:57:23;;;;;;;51.78;20.67;;;5.70;99.90;;;;;;5034190;28;20056;-76
2023/02/16 01:59:49;;;;;;;59.05;23.13;;;5.80;99.90;;;;;;5035337;28;20033;-76
2023/02/16 02:02:32;;;;;;;50.40;20.98;;;5.80;99.90;;;;;;5034046;28;20028;-76
2023/02/16 02:07:48;;;;;;;49.80;21.75;;;5.90;99.90;;;;;;5035311;28;20040;-76
2023/02/16 02:10:49;;;;;;;45.05;20.23;;;5.90;99.90;;;;;;5034009;28;20075;-76
2023/02/16 02:13:21;;;;;;;50.70;21.10;;;5.90;99.90;;;;;;5003869;28;20025;-76
2023/02/16 02:15:47;;;;;;;48.13;20.92;;;5.90;99.90;;;;;;5034023;28;20071;-76
2023/02/16 02:18:12;;;;;;;49.55;21.40;;;5.90;99.90;;;;;;5035122;28;20030;-76
2023/02/16 02:23:50;;;;;;;48.38;20.80;;;6.00;99.90;;;;;;5044419;22;20052;-76
2023/02/16 02:26:53;;;;;;;46.88;18.63;;;6.00;99.90;;;;;;5033627;28;20514;-77
2023/02/16 02:29:35;;;;;;;52.50;22.58;;;6.00;99.90;;;;;;5033326;28;20528;-77
2023/02/16 02:32:13;;;;;;;45.35;20.30;;;6.10;99.90;;;;;;5033358;28;20415;-77
2023/02/16 02:34:59;;;;;;;52.78;21.38;;;6.10;99.90;;;;;;5035165;28;20013;-78
2023/02/16 02:37:36;;;;;;;48.13;19.73;;;6.00;99.90;;;;;;5032977;28;20029;-77
2023/02/16 02:40:18;;;;;;;49.67;21.38;;;6.10;99.90;;;;;;5033688;28;20480;-77
2023/02/16 02:43:13;;;;;;;47.17;19.70;;;6.10;99.90;;;;;;5033589;28;20120;-77
2023/02/16 02:45:47;;;;;;;49.95;20.45;;;6.10;99.90;;;;;;5034485;28;20100;-78
2023/02/16 02:48:13;;;;;;;52.20;21.45;;;6.10;99.90;;;;;;5035492;28;20534;-78
2023/02/16 02:51:29;;;;;;;51.13;22.20;;;6.10;99.90;;;;;;5034554;28;20021;-77
2023/02/16 03:00:42;;;;;;;48.92;20.42;;;6.20;99.90;;;;;;5035704;28;20068;-77
2023/02/16 03:03:24;;;;;;;49.80;20.98;;;6.20;99.90;;;;;;5034891;28;20384;-78
2023/02/16 03:06:00;;;;;;;48.17;19.90;;;6.20;99.90;;;;;;5033631;28;20377;-77
2023/02/16 03:08:30;;;;;;;49.45;20.50;;;6.20;99.90;;;;;;5035397;28;20030;-77
2023/02/16 03:14:19;;;;;;;49.63;20.58;;;6.20;99.90;;;;;;5035375;28;20530;-77
2023/02/16 03:30:54;;;;;;;46.75;20.95;;;6.40;99.90;;;;;;5035909;28;20087;-77
2023/02/16 03:33:21;;;;;;;46.75;21.42;;;6.30;99.90;;;;;;5033875;28;20043;-77
2023/02/16 03:35:47;;;;;;;48.45;20.70;;;6.30;99.90;;;;;;5034718;28;20100;-77
2023/02/16 03:38:12;;;;;;;45.08;18.90;;;6.30;99.90;;;;;;5034321;28;20052;-77
2023/02/16 03:40:40;;;;;;;46.40;20.45;;;6.30;99.90;;;;;;5033516;28;20073;-77
2023/02/16 03:43:07;;;;;;;46.53;19.23;;;7.00;99.90;;;;;;5034940;28;20064;-78
2023/02/16 03:45:36;;;;;;;43.55;20.13;;;6.40;99.90;;;;;;5035205;28;20032;-77
2023/02/16 03:48:02;;;;;;;48.03;20.35;;;6.40;99.90;;;;;;5034637;28;20036;-77
2023/02/16 03:50:29;;;;;;;46.28;19.52;;;6.50;99.90;;;;;;5032732;28;20072;-77
2023/02/16 03:53:05;;;;;;;49.22;20.50;;;6.40;99.90;;;;;;5033583;28;20026;-77
2023/02/16 03:55:41;;;;;;;47.50;20.40;;;6.40;99.90;;;;;;5034380;28;20048;-77
2023/02/16 03:58:09;;;;;;;47.38;19.98;;;6.50;99.90;;;;;;5035031;28;20075;-77
2023/02/16 04:00:36;;;;;;;46.67;20.27;;;6.50;99.90;;;;;;5034182;28;20061;-77
2023/02/16 04:03:02;;;;;;;49.53;20.58;;;6.50;99.90;;;;;;5033440;28;20029;-77
2023/02/16 04:05:28;;;;;;;43.22;18.55;;;7.30;99.90;;;;;;5033345;28;20021;-77
2023/02/16 04:07:54;;;;;;;44.85;19.60;;;6.50;99.90;;;;;;5034459;28;20100;-77
2023/02/16 04:10:20;;;;;;;46.60;19.30;;;6.50;99.90;;;;;;5034367;28;20105;-76
2023/02/16 04:12:45;;;;;;;49.95;22.35;;;6.50;99.90;;;;;;5032628;28;20116;-77
2023/02/16 04:15:18;;;;;;;47.50;19.63;;;6.50;99.90;;;;;;5032901;28;20052;-76
2023/02/16 04:17:44;;;;;;;53.05;21.08;;;6.50;99.90;;;;;;5034811;28;20476;-77
2023/02/16 04:20:13;;;;;;;45.42;20.10;;;6.50;99.90;;;;;;5034353;28;20029;-77
2023/02/16 04:22:39;;;;;;;46.72;20.23;;;6.60;99.90;;;;;;5033020;28;20033;-77
2023/02/16 04:25:05;;;;;;;45.72;19.85;;;6.60;99.90;;;;;;5032945;28;20036;-77
2023/02/16 04:27:31;;;;;;;50.47;21.38;;;6.60;99.90;;;;;;5032983;28;20034;-77
2023/02/16 04:29:56;;;;;;;44.40;19.95;;;6.60;99.90;;;;;;5033138;28;20033;-77
2023/02/16 04:32:22;;;;;;;46.65;20.10;;;6.60;99.90;;;;;;5032835;28;20021;-77
2023/02/16 04:34:47;;;;;;;44.88;19.38;;;6.60;99.90;;;;;;5034040;28;20041;-77
2023/02/16 04:37:13;;;;;;;44.50;19.52;;;7.20;99.90;;;;;;5032447;28;20025;-77
2023/02/16 04:39:39;;;;;;;47.88;20.67;;;6.60;99.90;;;;;;5034299;28;20039;-77
2023/02/16 04:42:05;;;;;;;46.67;20.27;;;6.60;99.90;;;;;;5032873;28;20022;-77
2023/02/16 04:44:30;;;;;;;47.80;20.33;;;6.60;99.90;;;;;;5032431;28;20021;-77
2023/02/16 04:46:56;;;;;;;47.72;21.73;;;6.60;99.90;;;;;;5032458;28;20022;-77
2023/02/16 04:49:21;;;;;;;53.45;21.20;;;6.60;99.90;;;;;;5032428;28;20079;-77
2023/02/16 04:51:47;;;;;;;49.13;21.65;;;6.60;99.90;;;;;;5032484;28;20484;-77
2023/02/16 04:54:13;;;;;;;46.35;20.02;;;6.60;99.90;;;;;;5032969;28;20022;-77
2023/02/16 04:56:38;;;;;;;46.95;20.45;;;6.60;99.90;;;;;;5032687;28;20125;-77
2023/02/16 04:59:04;;;;;;;48.35;21.05;;;6.50;99.90;;;;;;5033769;28;20030;-77
2023/02/16 05:01:29;;;;;;;47.10;20.65;;;6.50;99.90;;;;;;5036709;28;20024;-77
2023/02/16 05:03:55;;;;;;;47.15;20.90;;;6.50;99.90;;;;;;5037301;28;20084;-77
2023/02/16 05:06:22;;;;;;;46.17;20.52;;;6.50;99.90;;;;;;5037305;28;20053;-78
2023/02/16 05:08:47;;;;;;;47.83;21.15;;;6.50;99.90;;;;;;5037253;28;20047;-77
2023/02/16 05:16:44;;;;;;;49.50;21.73;;;6.50;99.90;;;;;;5037770;28;20502;-77
2023/02/16 05:19:10;;;;;;;50.95;20.73;;;6.40;99.90;;;;;;5035702;28;20029;-78
2023/02/16 05:21:35;;;;;;;48.40;20.90;;;6.40;99.90;;;;;;5035271;28;20029;-77
2023/02/16 05:24:07;;;;;;;48.67;20.50;;;6.40;99.90;;;;;;5036612;28;20033;-77
2023/02/16 05:26:33;;;;;;;48.65;22.85;;;6.40;99.90;;;;;;5035431;28;20053;-77
2023/02/16 05:28:59;;;;;;;50.67;22.17;;;6.30;99.90;;;;;;5035730;28;20116;-77
2023/02/16 05:31:26;;;;;;;53.33;23.02;;;6.30;99.90;;;;;;5035699;28;20057;-77
2023/02/16 05:33:51;;;;;;;51.47;22.00;;;6.30;99.90;;;;;;5037106;28;20022;-77
2023/02/16 05:36:17;;;;;;;51.75;21.30;;;6.30;99.90;;;;;;5036834;28;20161;-77
2023/02/16 05:38:43;;;;;;;53.35;22.88;;;6.20;99.90;;;;;;5035526;28;20396;-77
2023/02/16 05:41:09;;;;;;;51.00;23.02;;;6.10;99.90;;;;;;5036955;28;20083;-77
2023/02/16 05:43:34;;;;;;;50.28;22.67;;;6.90;99.90;;;;;;5036841;28;20025;-77
2023/02/16 05:46:06;;;;;;;51.17;21.88;;;6.10;99.90;;;;;;5035141;28;20025;-77
2023/02/16 05:48:31;;;;;;;50.17;21.52;;;6.10;99.90;;;;;;5036352;28;20021;-77
2023/02/16 05:50:57;;;;;;;52.72;22.60;;;6.10;99.90;;;;;;5034954;28;20032;-78
2023/02/16 05:53:22;;;;;;;56.47;23.83;;;6.10;99.90;;;;;;5036230;28;20026;-77
2023/02/16 05:55:48;;;;;;;53.35;21.33;;;6.20;99.90;;;;;;5035576;28;20033;-77
2023/02/16 05:58:14;;;;;;;51.03;21.17;;;6.10;99.90;;;;;;5036288;28;20025;-77
2023/02/16 06:00:39;;;;;;;49.15;21.60;;;6.20;99.90;;;;;;5035198;28;20086;-77
2023/02/16 06:03:05;;;;;;;56.83;23.50;;;7.00;99.90;;;;;;5036225;28;20021;-78
2023/02/16 06:05:30;;;;;;;52.85;23.38;;;6.20;99.90;;;;;;5035254;28;20026;-78
2023/02/16 06:07:56;;;;;;;49.83;21.83;;;6.20;99.90;;;;;;5036472;28;20029;-77
2023/02/16 06:10:21;;;;;;;54.03;22.90;;;6.20;99.90;;;;;;5035101;28;20373;-77
2023/02/16 06:12:47;;;;;;;54.83;22.65;;;6.20;99.90;;;;;;5035946;28;20026;-77
2023/02/16 06:15:12;;;;;;;52.00;22.50;;;6.30;99.90;;;;;;5035068;28;20025;-78
2023/02/16 06:17:43;;;;;;;53.22;21.63;;;6.30;99.90;;;;;;5035149;28;20053;-77
2023/02/16 06:20:09;;;;;;;54.40;22.20;;;6.30;99.90;;;;;;5035041;28;20056;-76
2023/02/16 06:22:35;;;;;;;52.17;22.25;;;6.20;99.90;;;;;;5036262;28;20029;-74
2023/02/16 06:25:00;;;;;;;54.17;22.90;;;6.30;99.90;;;;;;5034838;28;20391;-74
2023/02/16 06:27:27;;;;;;;51.85;23.95;;;6.30;99.90;;;;;;5036225;28;20037;-73
2023/02/16 06:29:53;;;;;;;53.38;22.17;;;6.40;99.90;;;;;;5035021;28;20031;-73
2023/02/16 06:32:19;;;;;;;51.38;22.55;;;6.90;99.90;;;;;;5036256;28;20383;-74
2023/02/16 06:34:45;;;;;;;50.53;23.08;;;6.40;99.90;;;;;;5035510;28;20029;-74
2023/02/16 06:37:10;;;;;;;55.17;24.42;;;6.40;99.90;;;;;;5036198;28;20384;-74
2023/02/16 06:39:36;;;;;;;58.30;22.50;;;6.40;99.90;;;;;;5035995;28;20080;-74
2023/02/16 06:42:01;;;;;;;53.60;22.60;;;6.50;99.90;;;;;;5036064;28;20022;-74
2023/02/16 06:44:27;;;;;;;54.50;23.20;;;6.50;99.90;;;;;;5036296;28;20060;-74
2023/02/16 06:46:53;;;;;;;57.10;22.20;;;6.50;99.90;;;;;;5033989;28;20031;-74
2023/02/16 06:49:20;;;;;;;55.10;22.08;;;6.50;99.90;;;;;;5035230;28;20033;-74
2023/02/16 06:51:46;;;;;;;54.38;22.50;;;6.50;99.90;;;;;;5034703;28;20028;-74
2023/02/16 06:54:12;;;;;;;58.95;23.77;;;6.50;99.90;;;;;;5035619;28;20033;-74
2023/02/16 06:56:38;;;;;;;51.63;22.50;;;6.60;99.90;;;;;;5034108;28;20025;-75
2023/02/16 06:59:05;;;;;;;54.75;23.58;;;6.60;99.90;;;;;;5034853;28;20407;-76
2023/02/16 07:01:31;;;;;;;51.58;23.23;;;6.60;99.90;;;;;;5034463;28;20108;-75
2023/02/16 07:03:57;;;;;;;56.40;24.25;;;6.60;99.90;;;;;;5034686;28;20056;-74
2023/02/16 07:06:29;;;;;;;53.22;22.65;;;6.50;99.90;;;;;;5034901;28;20045;-75
2023/02/16 07:08:55;;;;;;;55.40;23.40;;;6.50;99.90;;;;;;5036520;28;20028;-75
2023/02/16 07:11:21;;;;;;;54.28;23.02;;;6.70;99.90;;;;;;5034904;28;20021;-75
2023/02/16 07:13:47;;;;;;;52.55;23.05;;;6.70;99.90;;;;;;5034614;28;20017;-74
2023/02/16 07:16:13;;;;;;;56.25;23.35;;;6.70;99.90;;;;;;5033937;28;20022;-74
2023/02/16 07:18:39;;;;;;;52.78;21.80;;;6.70;99.90;;;;;;5033740;28;20172;-75
2023/02/16 07:21:07;;;;;;;53.33;23.23;;;6.70;99.90;;;;;;5034175;28;20056;-75
2023/02/16 07:23:33;;;;;;;52.20;23.25;;;6.70;99.90;;;;;;5033444;28;20392;-75
2023/02/16 07:25:59;;;;;;;52.47;23.65;;;6.80;99.90;;;;;;5034421;28;20025;-75
2023/02/16 07:28:24;;;;;;;48.45;22.67;;;6.70;99.90;;;;;;5035206;28;20029;-75
2023/02/16 07:30:50;;;;;;;56.67;23.13;;;6.80;99.90;;;;;;5034894;28;20021;-75
2023/02/16 07:33:16;;;;;;;53.67;23.20;;;6.80;99.90;;;;;;5035596;28;20021;-75
2023/02/16 07:35:42;;;;;;;49.63;23.35;;;6.80;99.90;;;;;;5035460;28;20072;-77
2023/02/16 07:38:08;;;;;;;55.08;22.45;;;6.80;99.90;;;;;;5035467;28;20025;-76
2023/02/16 07:40:34;;;;;;;46.80;21.92;;;6.90;99.90;;;;;;5034929;28;20101;-77
2023/02/16 07:43:05;;;;;;;57.30;24.02;;;6.90;99.90;;;;;;5035493;28;20104;-77
2023/02/16 07:45:34;;;;;;;57.70;23.05;;;7.20;99.90;;;;;;5033975;28;20069;-77
2023/02/16 07:48:00;;;;;;;;;;;7.00;99.90;;;;;;5035508;28;20108;-77
2023/02/16 07:50:25;;;;;;;53.08;22.05;;;7.00;99.90;;;;;;5034509;28;19911;-77
2023/02/16 07:52:51;;;;;;;53.67;22.42;;;7.10;99.90;;;;;;5034834;28;20030;-77
2023/02/16 07:55:17;;;;;;;53.20;23.20;;;7.10;99.90;;;;;;5035007;28;20085;-77
2023/02/16 07:57:42;;;;;;;51.33;21.77;;;7.10;99.90;;;;;;5034935;28;20084;-77
2023/02/16 08:00:09;;;;;;;53.33;23.40;;;7.10;99.90;;;;;;5035411;28;20487;-76
2023/02/16 08:02:35;;;;;;;53.70;21.95;;;7.10;99.90;;;;;;5034987;28;20423;-76
2023/02/16 08:05:00;;;;;;;56.58;24.08;;;7.10;99.90;;;;;;5033860;28;20025;-76
2023/02/16 08:07:26;;;;;;;53.13;21.63;;;7.10;99.90;;;;;;5033043;28;20112;-77
2023/02/16 08:09:52;;;;;;;52.55;22.15;;;7.10;99.90;;;;;;5033449;28;20018;-77
2023/02/16 08:12:19;;;;;;;52.72;22.40;;;7.10;99.90;;;;;;5034354;28;20590;-77
2023/02/16 08:14:47;;;;;;;54.45;22.52;;;7.10;99.90;;;;;;5033618;28;20046;-77
2023/02/16 08:17:13;;;;;;;50.33;22.70;;;7.20;99.90;;;;;;5034180;28;20132;-77
2023/02/16 08:19:39;;;;;;;50.80;22.75;;;7.20;99.90;;;;;;5032427;28;20056;-76
2023/02/16 08:22:06;;;;;;;58.35;24.38;;;7.20;99.90;;;;;;5034470;28;20036;-77
2023/02/16 08:24:36;;;;;;;48.70;21.65;;;7.30;99.90;;;;;;5032464;28;20113;-77
2023/02/16 08:27:03;;;;;;;53.33;24.65;;;7.60;99.90;;;;;;5033887;28;20026;-77
2023/02/16 08:29:29;;;;;;;50.67;23.90;;;7.20;99.90;;;;;;5032617;28;20029;-77
2023/02/16 08:31:55;;;;;;;51.20;23.42;;;7.30;99.90;;;;;;5032464;28;20026;-77
2023/02/16 08:34:22;;;;;;;51.22;22.00;;;7.30;99.90;;;;;;5033988;28;20156;-77
2023/02/16 08:36:54;;;;;;;49.80;22.17;;;7.30;99.90;;;;;;5035703;28;20032;-77
2023/02/16 08:39:22;;;;;;;55.22;22.17;;;7.40;99.90;;;;;;5037790;28;20034;-77
2023/02/16 08:41:49;;;;;;;50.95;23.13;;;7.40;99.90;;;;;;5036188;28;20081;-77
2023/02/16 08:44:16;;;;;;;47.03;20.70;;;7.40;99.90;;;;;;5036907;28;20121;-77
2023/02/16 08:46:43;;;;;;;52.15;20.67;;;7.40;99.90;;;;;;5035943;28;20021;-77
2023/02/16 08:49:10;;;;;;;49.15;22.25;;;7.40;99.90;;;;;;5037393;28;20029;-77
2023/02/16 08:51:41;;;;;;;45.85;21.30;;;7.40;99.90;;;;;;5035996;28;20057;-77
2023/02/16 08:54:10;;;;;;;49.75;21.95;;;7.50;99.90;;;;;;5037300;28;20022;-77
2023/02/16 08:56:36;;;;;;;53.85;22.35;;;7.50;99.90;;;;;;5037409;28;20374;-77
2023/02/16 08:59:02;;;;;;;55.47;23.98;;;7.50;99.90;;;;;;5036100;28;20396;-77
2023/02/16 09:01:28;;;;;;;49.55;21.55;;;7.50;99.90;;;;;;5035902;28;20477;-77
2023/02/16 09:03:54;;;;;;;49.20;21.98;;;7.50;99.90;;;;;;5036034;28;20125;-77
2023/02/16 09:06:21;;;;;;;57.40;24.02;;;7.50;99.90;;;;;;5036035;28;20029;-77
2023/02/16 09:08:55;;;;;;;50.30;22.17;;;7.40;99.90;;;;;;5035646;28;20026;-77
2023/02/16 09:11:22;;;;;;;51.58;24.13;;;7.30;99.90;;;;;;5035653;28;20056;-77
2023/02/16 09:13:48;;;;;;;58.78;23.90;;;7.30;99.90;;;;;;5037176;28;20104;-77
2023/02/16 09:16:20;;;;;;;60.40;26.08;;;7.30;99.90;;;;;;5035764;28;20029;-77
2023/02/16 09:18:46;;;;;;;68.60;24.73;;;7.30;99.90;;;;;;5035662;28;20049;-77
2023/02/16 09:21:14;;;;;;;56.28;24.40;;;7.20;99.90;;;;;;5037187;28;20026;-77
2023/02/16 09:23:42;;;;;;;53.10;24.00;;;7.20;99.90;;;;;;5036647;28;20404;-77
2023/02/16 09:26:08;;;;;;;52.80;23.98;;;7.20;99.90;;;;;;5035166;28;20022;-76
2023/02/16 09:28:38;;;;;;;60.05;25.88;;;7.20;99.90;;;;;;5036445;28;20504;-77
2023/02/16 09:31:12;;;;;;;62.78;25.65;;;7.20;99.90;;;;;;5035209;28;20384;-76
2023/02/16 09:33:39;;;;;;;55.40;24.88;;;7.30;99.90;;;;;;5035313;28;20119;-76
2023/02/16 09:36:10;;;;;;;55.05;23.90;;;7.40;99.90;;;;;;5036563;28;20056;-76
2023/02/16 09:38:38;;;;;;;61.05;24.20;;;7.40;99.90;;;;;;5035442;28;20029;-76
2023/02/16 09:41:16;;;;;;;66.65;25.50;;;7.40;99.90;;;;;;5035467;28;20029;-76
2023/02/16 09:43:56;;;;;;;57.58;24.98;;;7.30;99.90;;;;;;5036588;28;20061;-76
2023/02/16 09:46:24;;;;;;;58.05;23.77;;;7.30;99.90;;;;;;5034908;28;20057;-76
2023/02/16 09:48:51;;;;;;;56.38;24.58;;;7.30;99.90;;;;;;5035493;28;20065;-76
2023/02/16 09:51:36;;;;;;;61.08;24.98;;;7.30;99.90;;;;;;5036294;28;20013;-76
2023/02/16 09:54:21;;;;;;;59.08;26.85;;;7.30;99.90;;;;;;5035203;28;20021;-76
2023/02/16 09:56:59;;;;;;;63.17;25.75;;;7.20;99.90;;;;;;5036341;28;20032;-76
2023/02/16 09:59:38;;;;;;;57.03;23.73;;;7.40;99.90;;;;;;5034935;28;20029;-76
2023/02/16 10:02:19;;;;;;;62.10;25.77;;;7.40;99.90;;;;;;5036263;28;20026;-76
2023/02/16 10:05:16;;;;;;;60.30;26.25;;;7.40;99.90;;;;;;5034843;28;20079;-76
2023/02/16 10:08:08;;;;;;;59.03;26.15;;;7.40;99.90;;;;;;5035330;28;20113;-76
2023/02/16 10:10:48;;;;;;;59.58;26.25;;;7.60;99.90;;;;;;5034398;28;20044;-76
2023/02/16 10:13:28;;;;;;;59.08;25.90;;;7.70;99.90;;;;;;5035857;28;20084;-76
2023/02/16 10:15:56;;;;;;;54.42;24.73;;;7.70;99.90;;;;;;5034518;28;20049;-76
2023/02/16 10:18:32;;;;;;;71.50;30.33;;;7.80;99.90;;;;;;5036362;28;20067;-76
2023/02/16 10:21:02;;;;;;;59.22;25.75;;;7.90;99.90;;;;;;5035743;28;20057;-76
2023/02/16 10:23:31;;;;;;;65.63;26.38;;;8.00;99.90;;;;;;5036204;28;20031;-76
2023/02/16 10:26:16;;;;;;;60.92;26.88;;;8.10;99.90;;;;;;5034680;28;20484;-76
2023/02/16 10:28:42;;;;;;;56.45;25.75;;;8.20;99.90;;;;;;5035226;28;20026;-76
2023/02/16 10:31:33;;;;;;;62.97;26.13;;;8.20;99.90;;;;;;5034275;28;20075;-76
2023/02/16 10:34:32;;;;;;;59.20;26.70;;;8.20;99.90;;;;;;5034501;28;20038;-76
2023/02/16 10:37:27;;;;;;;54.00;23.63;;;8.30;99.90;;;;;;5035573;28;20021;-76
2023/02/16 10:40:32;;;;;;;61.30;25.67;;;8.40;99.90;;;;;;5036001;28;20108;-76
2023/02/16 10:43:31;;;;;;;57.45;25.63;;;8.40;99.90;;;;;;5034116;28;20488;-76
2023/02/16 10:45:59;;;;;;;56.75;25.83;;;8.40;99.90;;;;;;5034482;28;20116;-76
2023/02/16 10:48:26;;;;;;;55.73;25.77;;;8.40;99.90;;;;;;5035533;28;20018;-76
2023/02/16 10:51:08;;;;;;;68.28;26.70;;;8.40;99.90;;;;;;5034078;28;20048;-76
2023/02/16 10:53:45;;;;;;;64.55;25.88;;;8.50;99.90;;;;;;5035582;28;20365;-76
2023/02/16 10:56:24;;;;;;;52.85;25.23;;;8.50;99.90;;;;;;5035211;28;20013;-76
2023/02/16 10:58:50;;;;;;;58.00;26.55;;;8.60;99.90;;;;;;5033574;28;20065;-76
2023/02/16 11:01:35;;;;;;;58.63;24.00;;;8.70;99.90;;;;;;5033996;28;20488;-76
2023/02/16 11:04:00;;;;;;;57.10;25.48;;;8.70;99.90;;;;;;5034108;28;20484;-76
2023/02/16 11:06:27;;;;;;;56.90;25.08;;;8.80;99.90;;;;;;5035488;28;20029;-76
2023/02/16 11:08:56;;;;;;;57.38;24.45;;;8.80;99.90;;;;;;5035178;28;20021;-76
2023/02/16 11:11:29;;;;;;;;;;;8.90;99.90;;;;;;5035249;28;20022;-76
2023/02/16 11:14:20;;;;;;;57.13;25.35;;;8.90;99.90;;;;;;5033766;28;19897;-76
2023/02/16 11:16:46;;;;;;;64.78;26.13;;;9.00;99.90;;;;;;5027224;28;20033;-76
2023/02/16 11:19:24;;;;;;;53.95;25.67;;;9.00;99.90;;;;;;5033267;28;20032;-76
2023/02/16 11:21:54;;;;;;;55.30;25.58;;;9.10;99.90;;;;;;5033345;28;20021;-76
2023/02/16 11:24:46;;;;;;;59.55;25.17;;;9.10;99.90;;;;;;5034497;28;20041;-76
2023/02/16 11:27:23;;;;;;;60.03;25.42;;;9.20;99.90;;;;;;5029855;28;20033;-76
2023/02/16 11:29:50;;;;;;;56.72;24.60;;;9.30;99.90;;;;;;5033583;28;20056;-76
2023/02/16 11:32:18;;;;;;;58.80;24.55;;;9.40;99.90;;;;;;5033083;28;20020;-76
2023/02/16 11:34:49;;;;;;;54.15;24.80;;;9.50;99.90;;;;;;5032973;28;20014;-76
2023/02/16 11:37:23;;;;;;;51.67;23.60;;;9.60;99.90;;;;;;5034444;28;20037;-76
2023/02/16 11:39:53;;;;;;;50.85;24.30;;;9.70;99.90;;;;;;5033563;28;20033;-76
2023/02/16 11:42:43;;;;;;;53.00;23.83;;;9.70;99.90;;;;;;5034310;28;20480;-76
2023/02/16 11:45:29;;;;;;;50.17;23.10;;;9.80;99.90;;;;;;5034427;28;20031;-76
2023/02/16 11:48:26;;;;;;;53.72;25.05;;;9.90;99.90;;;;;;5033936;28;20026;-76
2023/02/16 11:51:14;;;;;;;45.42;22.25;;;9.90;99.90;;;;;;5032870;28;20053;-76
2023/02/16 11:53:41;;;;;;;49.33;21.90;;;10.00;99.90;;;;;;5034148;28;20037;-76
2023/02/16 11:56:17;;;;;;;53.83;22.75;;;10.10;99.90;;;;;;5032757;28;20029;-76
2023/02/16 11:58:43;;;;;;;56.47;24.17;;;10.10;99.90;;;;;;5033140;28;20049;-76
2023/02/16 12:01:24;;;;;;;48.08;23.13;;;10.20;99.90;;;;;;5034196;28;20026;-76
2023/02/16 12:04:02;;;;;;;52.90;23.05;;;10.20;99.90;;;;;;5033130;28;20021;-76
2023/02/16 12:06:57;;;;;;;49.78;23.55;;;10.20;99.90;;;;;;5034768;28;20371;-76
2023/02/16 12:09:57;;;;;;;39.95;20.75;;;10.40;99.90;;;;;;4998234;28;20037;-76
2023/02/16 12:12:43;;;;;;;48.72;20.83;;;10.50;99.90;;;;;;4986858;28;20037;-76
2023/02/16 12:15:12;;;;;;;44.55;21.50;;;10.60;99.90;;;;;;5037250;28;20021;-76
2023/02/16 12:17:53;;;;;;;48.25;21.42;;;10.80;99.90;;;;;;5036887;28;20021;-76
2023/02/16 12:20:48;;;;;;;42.42;20.13;;;11.00;99.90;;;;;;5038417;28;20160;-76
2023/02/16 12:23:27;;;;;;;39.55;20.52;;;11.30;99.90;;;;;;5038022;28;20040;-76
2023/02/16 12:26:12;;;;;;;39.90;19.67;;;11.40;99.90;;;;;;5038020;28;20025;-76
2023/02/16 12:29:00;;;;;;;38.92;19.13;;;11.50;99.90;;;;;;5036620;28;20039;-76
2023/02/16 12:31:39;;;;;;;41.95;19.88;;;11.50;99.90;;;;;;5037925;28;20021;-76
2023/02/16 12:34:16;;;;;;;45.60;20.33;;;11.50;99.90;;;;;;5036806;28;20021;-76
2023/02/16 12:37:06;;;;;;;42.53;19.88;;;11.40;99.90;;;;;;5036569;28;20021;-76
2023/02/16 12:40:16;;;;;;;40.30;19.20;;;11.40;99.90;;;;;;5037875;28;20053;-76
2023/02/16 12:43:24;;;;;;;44.28;20.50;;;11.60;99.90;;;;;;4976653;28;20034;-76
2023/02/16 12:45:52;;;;;;;48.30;21.25;;;11.70;99.90;;;;;;4976387;28;20023;-76
2023/02/16 12:48:41;;;;;;;42.50;20.10;;;11.80;99.90;;;;;;5025967;28;20042;-76
2023/02/16 12:51:17;;;;;;;44.83;20.23;;;11.90;99.90;;;;;;5037074;28;20017;-76
2023/02/16 12:53:52;;;;;;;39.80;18.85;;;11.90;99.90;;;;;;5037005;28;20028;-76
2023/02/16 12:56:38;;;;;;;46.03;20.05;;;12.00;99.90;;;;;;5037012;28;20392;-76
2023/02/16 12:59:29;;;;;;;46.92;21.38;;;11.90;99.90;;;;;;5036071;28;20025;-76
2023/02/16 13:01:58;;;;;;;43.10;20.02;;;11.90;99.90;;;;;;5036447;28;20029;-76
2023/02/16 13:04:41;;;;;;;;;;;12.10;99.90;;;;;;5036941;28;20029;-76
2023/02/16 13:07:27;;;;;;;38.30;19.23;;;12.30;99.90;;;;;;5035314;28;20299;-76
2023/02/16 13:10:03;;;;;;;40.65;18.30;;;12.40;99.90;;;;;;5036638;28;20337;-77
2023/02/16 13:12:52;;;;;;;39.85;19.08;;;12.40;99.90;;;;;;5034781;28;20030;-77
2023/02/16 13:15:32;;;;;;;41.38;17.05;;;12.30;99.90;;;;;;5035193;28;20028;-76
2023/02/16 13:18:10;;;;;;;36.65;17.30;;;12.30;99.90;;;;;;5035869;28;20018;-76
2023/02/16 13:20:40;;;;;;;28.90;15.63;;;12.30;99.90;;;;;;5036425;28;20112;-76
2023/02/16 13:23:11;;;;;;;36.88;18.08;;;12.30;99.90;;;;;;5035610;28;20061;-76
2023/02/16 13:25:51;;;;;;;34.28;14.90;;;12.50;99.90;;;;;;5036024;28;20037;-76
2023/02/16 13:28:31;;;;;;;29.60;14.25;;;12.60;99.90;;;;;;5034684;28;20030;-76
2023/02/16 13:31:28;;;;;;;32.10;13.90;;;12.60;99.90;;;;;;5034656;28;20018;-76
2023/02/16 13:33:59;;;;;;;29.88;14.95;;;12.60;99.90;;;;;;5036572;28;20021;-76
2023/02/16 13:36:36;;;;;;;30.15;14.48;;;12.60;99.90;;;;;;5034786;28;20116;-76
2023/02/16 13:39:44;;;;;;;29.05;14.27;;;12.60;99.90;;;;;;5034661;28;20617;-77
2023/02/16 13:42:10;;;;;;;29.63;12.77;;;12.50;99.90;;;;;;5015186;28;20045;-77
2023/02/16 13:44:50;;;;;;;30.77;14.45;;;12.60;99.90;;;;;;5034579;28;20033;-76
2023/02/16 13:47:22;;;;;;;29.13;12.32;;;12.60;99.90;;;;;;5034767;28;20037;-76